Portada
METAR-TAF:

METAR-TAF

Aeroports :

North Perry Airport

Hollywood, Florida, Estats Units d'Amèrica

latitud: 25-59-56N, longitud: 080-14-28W, altitud: 2 m

Observació

L'informe es va fer fa 50 minuts, a les 05:53 UTC
Vent 5 kt del Oest/Sud-Oest
Temperatura 27°C
Humitat 79%
Pressió 1014 hPa
Visibilitat: 16.1 km
Cel clar

METAR: KHWO 160553Z AUTO 25005KT 10SM CLR 27/23 A2995 RMK AO2 SLP140 T02720233 10306 20272 50000

Hora: 02:43 (06:43 UTC)


TAF: manca

Observacions i pronòstics meteorològics de més de 4000 aeroports (METAR i TAF).

Les estacions disponibles són els punts grocs i vermells al mapa.

Posi el ratolí al punt desitjat per veure el nom de l'estació.

Feu clic per veure les observacions i els pronòstics meteorològics.

Per canviar el mapa: feu clic els botons verds amb una creu de color negre per apropar; al botó verd amb un guió per allunyar la imatge; o en les fletxes verdes per a mapes adjacents.


METAR-TAF: